sensor_id;sensor_type;location;lat;lon;timestamp;P1;durP1;ratioP1;P2;durP2;ratioP2
49460;SDS011;35355;49.198;-0.368;2023-06-14T00:00:10;26.75;;;10.88;;
49460;SDS011;35355;49.198;-0.368;2023-06-14T00:02:38;25.77;;;10.27;;
49460;SDS011;35355;49.198;-0.368;2023-06-14T00:05:04;27.73;;;11.73;;
49460;SDS011;35355;49.198;-0.368;2023-06-14T00:07:37;21.48;;;9.30;;
49460;SDS011;35355;49.198;-0.368;2023-06-14T00:10:07;25.85;;;12.02;;
49460;SDS011;35355;49.198;-0.368;2023-06-14T00:12:33;21.38;;;10.20;;
49460;SDS011;35355;49.198;-0.368;2023-06-14T00:14:59;29.45;;;11.82;;
49460;SDS011;35355;49.198;-0.368;2023-06-14T00:17:26;26.27;;;11.70;;
49460;SDS011;35355;49.198;-0.368;2023-06-14T00:19:55;23.85;;;10.60;;
49460;SDS011;35355;49.198;-0.368;2023-06-14T00:22:22;22.80;;;11.10;;
49460;SDS011;35355;49.198;-0.368;2023-06-14T00:24:49;28.88;;;11.93;;
49460;SDS011;35355;49.198;-0.368;2023-06-14T00:27:15;20.98;;;10.02;;
49460;SDS011;35355;49.198;-0.368;2023-06-14T00:29:40;27.83;;;11.75;;
49460;SDS011;35355;49.198;-0.368;2023-06-14T00:32:06;26.60;;;10.65;;
49460;SDS011;35355;49.198;-0.368;2023-06-14T00:34:32;26.35;;;10.45;;
49460;SDS011;35355;49.198;-0.368;2023-06-14T00:36:58;27.83;;;12.27;;
49460;SDS011;35355;49.198;-0.368;2023-06-14T00:39:24;40.38;;;11.13;;
49460;SDS011;35355;49.198;-0.368;2023-06-14T00:41:49;21.45;;;10.48;;
49460;SDS011;35355;49.198;-0.368;2023-06-14T00:44:14;23.08;;;11.98;;
49460;SDS011;35355;49.198;-0.368;2023-06-14T00:46:41;28.30;;;10.38;;
49460;SDS011;35355;49.198;-0.368;2023-06-14T00:49:07;30.33;;;10.75;;
49460;SDS011;35355;49.198;-0.368;2023-06-14T00:51:33;24.65;;;10.20;;
49460;SDS011;35355;49.198;-0.368;2023-06-14T00:53:59;22.80;;;10.00;;
49460;SDS011;35355;49.198;-0.368;2023-06-14T00:56:25;28.58;;;9.65;;
49460;SDS011;35355;49.198;-0.368;2023-06-14T00:58:52;28.48;;;10.27;;
49460;SDS011;35355;49.198;-0.368;2023-06-14T01:01:18;30.13;;;9.57;;
49460;SDS011;35355;49.198;-0.368;2023-06-14T01:03:43;30.02;;;11.18;;
49460;SDS011;35355;49.198;-0.368;2023-06-14T01:11:13;22.70;;;9.15;;
49460;SDS011;35355;49.198;-0.368;2023-06-14T01:13:46;19.73;;;8.77;;
49460;SDS011;35355;49.198;-0.368;2023-06-14T01:16:13;24.52;;;9.15;;
49460;SDS011;35355;49.198;-0.368;2023-06-14T01:18:39;22.50;;;8.57;;
49460;SDS011;35355;49.198;-0.368;2023-06-14T01:21:15;25.77;;;8.88;;
49460;SDS011;35355;49.198;-0.368;2023-06-14T01:23:45;23.27;;;8.55;;
49460;SDS011;35355;49.198;-0.368;2023-06-14T01:26:17;25.52;;;9.13;;
49460;SDS011;35355;49.198;-0.368;2023-06-14T01:28:46;29.52;;;8.05;;
49460;SDS011;35355;49.198;-0.368;2023-06-14T01:31:16;23.63;;;9.10;;
49460;SDS011;35355;49.198;-0.368;2023-06-14T01:33:44;17.92;;;7.90;;
49460;SDS011;35355;49.198;-0.368;2023-06-14T01:36:11;32.10;;;9.18;;
49460;SDS011;35355;49.198;-0.368;2023-06-14T01:38:37;25.80;;;8.20;;
49460;SDS011;35355;49.198;-0.368;2023-06-14T01:41:03;34.30;;;8.38;;
49460;SDS011;35355;49.198;-0.368;2023-06-14T01:43:29;27.63;;;9.07;;
49460;SDS011;35355;49.198;-0.368;2023-06-14T01:45:56;16.50;;;7.68;;
49460;SDS011;35355;49.198;-0.368;2023-06-14T01:48:22;27.35;;;8.50;;
49460;SDS011;35355;49.198;-0.368;2023-06-14T01:50:49;28.52;;;8.48;;
49460;SDS011;35355;49.198;-0.368;2023-06-14T01:53:15;30.17;;;8.20;;
49460;SDS011;35355;49.198;-0.368;2023-06-14T01:55:41;22.10;;;7.53;;
49460;SDS011;35355;49.198;-0.368;2023-06-14T01:58:08;28.02;;;7.80;;
49460;SDS011;35355;49.198;-0.368;2023-06-14T02:00:34;29.52;;;7.43;;
49460;SDS011;35355;49.198;-0.368;2023-06-14T02:02:59;26.63;;;7.43;;
49460;SDS011;35355;49.198;-0.368;2023-06-14T02:05:25;28.20;;;7.88;;
49460;SDS011;35355;49.198;-0.368;2023-06-14T02:07:51;27.15;;;8.35;;
49460;SDS011;35355;49.198;-0.368;2023-06-14T02:10:18;24.88;;;6.43;;
49460;SDS011;35355;49.198;-0.368;2023-06-14T02:12:43;27.05;;;7.60;;
49460;SDS011;35355;49.198;-0.368;2023-06-14T02:15:09;22.00;;;7.60;;
49460;SDS011;35355;49.198;-0.368;2023-06-14T02:17:45;33.88;;;7.47;;
49460;SDS011;35355;49.198;-0.368;2023-06-14T02:20:12;21.98;;;7.88;;
49460;SDS011;35355;49.198;-0.368;2023-06-14T02:22:38;30.08;;;8.30;;
49460;SDS011;35355;49.198;-0.368;2023-06-14T02:25:03;29.00;;;8.43;;
49460;SDS011;35355;49.198;-0.368;2023-06-14T02:27:29;42.88;;;7.47;;
49460;SDS011;35355;49.198;-0.368;2023-06-14T02:29:54;32.72;;;7.47;;
49460;SDS011;35355;49.198;-0.368;2023-06-14T02:32:19;26.70;;;6.88;;
49460;SDS011;35355;49.198;-0.368;2023-06-14T02:34:45;24.00;;;7.35;;
49460;SDS011;35355;49.198;-0.368;2023-06-14T02:37:14;34.72;;;7.45;;
49460;SDS011;35355;49.198;-0.368;2023-06-14T02:39:40;24.67;;;6.60;;
49460;SDS011;35355;49.198;-0.368;2023-06-14T02:42:06;31.83;;;6.50;;
49460;SDS011;35355;49.198;-0.368;2023-06-14T02:44:31;26.75;;;6.32;;
49460;SDS011;35355;49.198;-0.368;2023-06-14T02:46:57;23.05;;;6.85;;
49460;SDS011;35355;49.198;-0.368;2023-06-14T02:49:23;25.80;;;6.88;;
49460;SDS011;35355;49.198;-0.368;2023-06-14T02:51:49;22.00;;;6.45;;
49460;SDS011;35355;49.198;-0.368;2023-06-14T02:54:15;41.03;;;7.47;;
49460;SDS011;35355;49.198;-0.368;2023-06-14T02:56:40;26.23;;;7.30;;
49460;SDS011;35355;49.198;-0.368;2023-06-14T02:59:06;31.92;;;6.85;;
49460;SDS011;35355;49.198;-0.368;2023-06-14T03:01:32;38.55;;;7.30;;
49460;SDS011;35355;49.198;-0.368;2023-06-14T03:04:03;35.63;;;8.20;;
49460;SDS011;35355;49.198;-0.368;2023-06-14T03:06:29;33.28;;;6.65;;
49460;SDS011;35355;49.198;-0.368;2023-06-14T03:08:55;26.10;;;6.78;;
49460;SDS011;35355;49.198;-0.368;2023-06-14T03:11:24;38.80;;;7.00;;
49460;SDS011;35355;49.198;-0.368;2023-06-14T03:13:51;21.48;;;5.53;;
49460;SDS011;35355;49.198;-0.368;2023-06-14T03:16:17;33.15;;;5.78;;
49460;SDS011;35355;49.198;-0.368;2023-06-14T03:18:46;27.45;;;6.25;;
49460;SDS011;35355;49.198;-0.368;2023-06-14T03:21:13;23.60;;;5.72;;
49460;SDS011;35355;49.198;-0.368;2023-06-14T03:23:41;27.13;;;6.90;;
49460;SDS011;35355;49.198;-0.368;2023-06-14T03:26:07;31.60;;;6.80;;
49460;SDS011;35355;49.198;-0.368;2023-06-14T03:28:33;23.55;;;5.70;;
49460;SDS011;35355;49.198;-0.368;2023-06-14T03:30:58;27.75;;;6.40;;
49460;SDS011;35355;49.198;-0.368;2023-06-14T03:33:24;18.02;;;6.88;;
49460;SDS011;35355;49.198;-0.368;2023-06-14T03:35:50;23.00;;;5.88;;
49460;SDS011;35355;49.198;-0.368;2023-06-14T03:38:16;35.00;;;7.60;;
49460;SDS011;35355;49.198;-0.368;2023-06-14T03:40:41;27.20;;;7.22;;
49460;SDS011;35355;49.198;-0.368;2023-06-14T03:43:07;27.55;;;6.38;;
49460;SDS011;35355;49.198;-0.368;2023-06-14T03:45:32;31.17;;;6.50;;
49460;SDS011;35355;49.198;-0.368;2023-06-14T03:47:57;34.65;;;6.03;;
49460;SDS011;35355;49.198;-0.368;2023-06-14T03:50:23;30.98;;;6.45;;
49460;SDS011;35355;49.198;-0.368;2023-06-14T03:52:48;33.08;;;7.68;;
49460;SDS011;35355;49.198;-0.368;2023-06-14T03:55:15;20.58;;;5.70;;
49460;SDS011;35355;49.198;-0.368;2023-06-14T03:57:41;29.02;;;6.53;;
49460;SDS011;35355;49.198;-0.368;2023-06-14T04:00:07;27.08;;;5.80;;
49460;SDS011;35355;49.198;-0.368;2023-06-14T04:02:34;21.98;;;6.35;;
49460;SDS011;35355;49.198;-0.368;2023-06-14T04:05:01;23.02;;;6.47;;
49460;SDS011;35355;49.198;-0.368;2023-06-14T04:07:27;28.92;;;5.75;;
49460;SDS011;35355;49.198;-0.368;2023-06-14T04:09:53;20.70;;;6.90;;
49460;SDS011;35355;49.198;-0.368;2023-06-14T04:12:19;26.33;;;5.75;;
49460;SDS011;35355;49.198;-0.368;2023-06-14T04:14:45;30.00;;;5.20;;
49460;SDS011;35355;49.198;-0.368;2023-06-14T04:17:10;23.25;;;4.90;;
49460;SDS011;35355;49.198;-0.368;2023-06-14T04:19:36;32.85;;;6.03;;
49460;SDS011;35355;49.198;-0.368;2023-06-14T04:22:01;19.77;;;4.18;;
49460;SDS011;35355;49.198;-0.368;2023-06-14T04:24:27;25.88;;;5.40;;
49460;SDS011;35355;49.198;-0.368;2023-06-14T04:26:59;23.30;;;4.97;;
49460;SDS011;35355;49.198;-0.368;2023-06-14T04:29:26;30.83;;;6.10;;
49460;SDS011;35355;49.198;-0.368;2023-06-14T04:31:53;21.77;;;4.97;;
49460;SDS011;35355;49.198;-0.368;2023-06-14T04:34:19;37.45;;;6.05;;
49460;SDS011;35355;49.198;-0.368;2023-06-14T04:36:46;26.33;;;5.43;;
49460;SDS011;35355;49.198;-0.368;2023-06-14T04:39:18;32.63;;;6.45;;
49460;SDS011;35355;49.198;-0.368;2023-06-14T04:41:44;27.35;;;5.38;;
49460;SDS011;35355;49.198;-0.368;2023-06-14T04:44:10;27.63;;;4.95;;
49460;SDS011;35355;49.198;-0.368;2023-06-14T04:46:36;24.27;;;5.68;;
49460;SDS011;35355;49.198;-0.368;2023-06-14T04:49:14;27.55;;;5.15;;
49460;SDS011;35355;49.198;-0.368;2023-06-14T04:51:41;25.02;;;5.43;;
49460;SDS011;35355;49.198;-0.368;2023-06-14T04:54:07;40.70;;;5.60;;
49460;SDS011;35355;49.198;-0.368;2023-06-14T04:56:35;26.38;;;5.28;;
49460;SDS011;35355;49.198;-0.368;2023-06-14T04:59:02;29.33;;;4.85;;
49460;SDS011;35355;49.198;-0.368;2023-06-14T05:01:30;28.42;;;5.22;;
49460;SDS011;35355;49.198;-0.368;2023-06-14T05:03:57;26.60;;;5.20;;
49460;SDS011;35355;49.198;-0.368;2023-06-14T05:06:22;26.25;;;4.97;;
49460;SDS011;35355;49.198;-0.368;2023-06-14T05:08:48;37.58;;;5.80;;
49460;SDS011;35355;49.198;-0.368;2023-06-14T05:11:13;31.40;;;5.60;;
49460;SDS011;35355;49.198;-0.368;2023-06-14T05:13:39;27.48;;;5.50;;
49460;SDS011;35355;49.198;-0.368;2023-06-14T05:16:06;28.45;;;5.68;;
49460;SDS011;35355;49.198;-0.368;2023-06-14T05:18:31;23.00;;;4.80;;
49460;SDS011;35355;49.198;-0.368;2023-06-14T05:20:59;29.52;;;5.22;;
49460;SDS011;35355;49.198;-0.368;2023-06-14T05:23:24;20.63;;;5.50;;
49460;SDS011;35355;49.198;-0.368;2023-06-14T05:25:50;23.40;;;4.35;;
49460;SDS011;35355;49.198;-0.368;2023-06-14T05:28:15;31.77;;;4.15;;
49460;SDS011;35355;49.198;-0.368;2023-06-14T05:30:41;22.77;;;5.03;;
49460;SDS011;35355;49.198;-0.368;2023-06-14T05:33:06;35.75;;;6.03;;
49460;SDS011;35355;49.198;-0.368;2023-06-14T05:35:32;29.35;;;4.95;;
49460;SDS011;35355;49.198;-0.368;2023-06-14T05:37:57;21.25;;;5.07;;
49460;SDS011;35355;49.198;-0.368;2023-06-14T05:40:23;32.30;;;5.90;;
49460;SDS011;35355;49.198;-0.368;2023-06-14T05:42:48;30.42;;;4.80;;
49460;SDS011;35355;49.198;-0.368;2023-06-14T05:45:14;28.90;;;5.28;;
49460;SDS011;35355;49.198;-0.368;2023-06-14T05:47:41;27.75;;;5.22;;
49460;SDS011;35355;49.198;-0.368;2023-06-14T05:50:06;19.33;;;4.75;;
49460;SDS011;35355;49.198;-0.368;2023-06-14T05:52:33;22.33;;;4.63;;
49460;SDS011;35355;49.198;-0.368;2023-06-14T05:54:59;34.90;;;6.28;;
49460;SDS011;35355;49.198;-0.368;2023-06-14T05:57:25;23.50;;;6.13;;
49460;SDS011;35355;49.198;-0.368;2023-06-14T05:59:50;26.17;;;5.35;;
49460;SDS011;35355;49.198;-0.368;2023-06-14T06:02:16;29.50;;;5.03;;
49460;SDS011;35355;49.198;-0.368;2023-06-14T06:04:41;29.05;;;5.72;;
49460;SDS011;35355;49.198;-0.368;2023-06-14T06:07:07;32.97;;;5.68;;
49460;SDS011;35355;49.198;-0.368;2023-06-14T06:09:33;29.00;;;6.05;;
49460;SDS011;35355;49.198;-0.368;2023-06-14T06:11:58;20.60;;;4.78;;
49460;SDS011;35355;49.198;-0.368;2023-06-14T06:14:24;24.67;;;5.88;;
49460;SDS011;35355;49.198;-0.368;2023-06-14T06:16:49;22.70;;;5.57;;
49460;SDS011;35355;49.198;-0.368;2023-06-14T06:19:17;31.02;;;6.32;;
49460;SDS011;35355;49.198;-0.368;2023-06-14T06:21:43;42.40;;;6.10;;
49460;SDS011;35355;49.198;-0.368;2023-06-14T06:24:08;29.27;;;6.30;;
49460;SDS011;35355;49.198;-0.368;2023-06-14T06:26:34;22.70;;;5.63;;
49460;SDS011;35355;49.198;-0.368;2023-06-14T06:29:02;27.52;;;5.88;;
49460;SDS011;35355;49.198;-0.368;2023-06-14T06:31:28;34.70;;;5.13;;
49460;SDS011;35355;49.198;-0.368;2023-06-14T06:33:53;28.13;;;5.40;;
49460;SDS011;35355;49.198;-0.368;2023-06-14T06:36:20;17.98;;;5.05;;
49460;SDS011;35355;49.198;-0.368;2023-06-14T06:38:46;27.73;;;5.40;;
49460;SDS011;35355;49.198;-0.368;2023-06-14T06:41:12;28.15;;;5.72;;
49460;SDS011;35355;49.198;-0.368;2023-06-14T06:43:38;21.33;;;5.47;;
49460;SDS011;35355;49.198;-0.368;2023-06-14T06:46:03;24.92;;;4.95;;
49460;SDS011;35355;49.198;-0.368;2023-06-14T06:48:28;33.38;;;5.63;;
49460;SDS011;35355;49.198;-0.368;2023-06-14T06:50:54;33.03;;;5.30;;
49460;SDS011;35355;49.198;-0.368;2023-06-14T06:53:20;29.88;;;6.75;;
49460;SDS011;35355;49.198;-0.368;2023-06-14T06:55:45;25.50;;;5.82;;
49460;SDS011;35355;49.198;-0.368;2023-06-14T06:58:11;36.30;;;6.72;;
49460;SDS011;35355;49.198;-0.368;2023-06-14T07:00:37;42.40;;;6.68;;
49460;SDS011;35355;49.198;-0.368;2023-06-14T07:03:03;41.67;;;6.88;;
49460;SDS011;35355;49.198;-0.368;2023-06-14T07:05:29;26.52;;;6.53;;
49460;SDS011;35355;49.198;-0.368;2023-06-14T07:07:54;23.58;;;5.80;;
49460;SDS011;35355;49.198;-0.368;2023-06-14T07:10:20;22.92;;;5.65;;
49460;SDS011;35355;49.198;-0.368;2023-06-14T07:12:45;20.00;;;6.43;;
49460;SDS011;35355;49.198;-0.368;2023-06-14T07:15:11;34.80;;;7.03;;
49460;SDS011;35355;49.198;-0.368;2023-06-14T07:17:37;25.98;;;5.75;;
49460;SDS011;35355;49.198;-0.368;2023-06-14T07:20:03;22.20;;;5.13;;
49460;SDS011;35355;49.198;-0.368;2023-06-14T07:22:32;40.30;;;7.93;;
49460;SDS011;35355;49.198;-0.368;2023-06-14T07:24:58;19.17;;;5.63;;
49460;SDS011;35355;49.198;-0.368;2023-06-14T07:27:23;24.70;;;5.22;;
49460;SDS011;35355;49.198;-0.368;2023-06-14T07:29:49;23.23;;;4.82;;
49460;SDS011;35355;49.198;-0.368;2023-06-14T07:32:14;23.27;;;5.95;;
49460;SDS011;35355;49.198;-0.368;2023-06-14T07:34:40;24.35;;;6.10;;
49460;SDS011;35355;49.198;-0.368;2023-06-14T07:37:05;20.52;;;5.63;;
49460;SDS011;35355;49.198;-0.368;2023-06-14T07:39:31;20.00;;;5.43;;
49460;SDS011;35355;49.198;-0.368;2023-06-14T07:41:56;41.42;;;6.72;;
49460;SDS011;35355;49.198;-0.368;2023-06-14T07:44:22;29.85;;;6.20;;
49460;SDS011;35355;49.198;-0.368;2023-06-14T07:46:47;22.73;;;5.28;;
49460;SDS011;35355;49.198;-0.368;2023-06-14T07:49:14;24.90;;;6.68;;
49460;SDS011;35355;49.198;-0.368;2023-06-14T07:51:40;32.78;;;7.15;;
49460;SDS011;35355;49.198;-0.368;2023-06-14T07:54:05;28.40;;;5.97;;
49460;SDS011;35355;49.198;-0.368;2023-06-14T07:56:32;33.15;;;7.03;;
49460;SDS011;35355;49.198;-0.368;2023-06-14T07:58:57;22.70;;;6.25;;
49460;SDS011;35355;49.198;-0.368;2023-06-14T08:01:23;35.92;;;7.50;;
49460;SDS011;35355;49.198;-0.368;2023-06-14T08:03:50;24.63;;;6.20;;
49460;SDS011;35355;49.198;-0.368;2023-06-14T08:06:15;22.58;;;6.20;;
49460;SDS011;35355;49.198;-0.368;2023-06-14T08:08:41;25.00;;;6.05;;
49460;SDS011;35355;49.198;-0.368;2023-06-14T08:11:06;31.00;;;6.07;;
49460;SDS011;35355;49.198;-0.368;2023-06-14T08:13:32;27.08;;;6.28;;
49460;SDS011;35355;49.198;-0.368;2023-06-14T08:15:57;26.67;;;5.53;;
49460;SDS011;35355;49.198;-0.368;2023-06-14T08:18:23;26.55;;;5.30;;
49460;SDS011;35355;49.198;-0.368;2023-06-14T08:20:49;31.45;;;5.88;;
49460;SDS011;35355;49.198;-0.368;2023-06-14T08:23:15;25.27;;;6.53;;
49460;SDS011;35355;49.198;-0.368;2023-06-14T08:25:44;22.05;;;5.80;;
49460;SDS011;35355;49.198;-0.368;2023-06-14T08:28:09;29.73;;;6.72;;
49460;SDS011;35355;49.198;-0.368;2023-06-14T08:30:35;25.45;;;5.80;;
49460;SDS011;35355;49.198;-0.368;2023-06-14T08:33:00;25.52;;;5.35;;
49460;SDS011;35355;49.198;-0.368;2023-06-14T08:35:26;28.30;;;6.30;;
49460;SDS011;35355;49.198;-0.368;2023-06-14T08:37:51;21.92;;;5.32;;
49460;SDS011;35355;49.198;-0.368;2023-06-14T08:42:50;18.10;;;5.60;;
49460;SDS011;35355;49.198;-0.368;2023-06-14T08:45:18;26.38;;;5.88;;
49460;SDS011;35355;49.198;-0.368;2023-06-14T08:47:45;27.60;;;7.20;;
49460;SDS011;35355;49.198;-0.368;2023-06-14T08:50:17;34.80;;;5.28;;
49460;SDS011;35355;49.198;-0.368;2023-06-14T08:52:45;31.92;;;5.82;;
49460;SDS011;35355;49.198;-0.368;2023-06-14T08:55:14;25.25;;;5.28;;
49460;SDS011;35355;49.198;-0.368;2023-06-14T08:57:42;19.55;;;5.20;;
49460;SDS011;35355;49.198;-0.368;2023-06-14T09:00:09;21.48;;;4.78;;
49460;SDS011;35355;49.198;-0.368;2023-06-14T09:02:39;20.92;;;5.75;;
49460;SDS011;35355;49.198;-0.368;2023-06-14T09:05:09;30.20;;;6.15;;
49460;SDS011;35355;49.198;-0.368;2023-06-14T09:07:36;27.88;;;5.78;;
49460;SDS011;35355;49.198;-0.368;2023-06-14T09:10:10;16.38;;;5.72;;
49460;SDS011;35355;49.198;-0.368;2023-06-14T09:12:38;35.08;;;6.68;;
49460;SDS011;35355;49.198;-0.368;2023-06-14T09:15:04;16.67;;;4.22;;
49460;SDS011;35355;49.198;-0.368;2023-06-14T09:17:34;18.27;;;4.85;;
49460;SDS011;35355;49.198;-0.368;2023-06-14T09:20:07;22.70;;;5.28;;
49460;SDS011;35355;49.198;-0.368;2023-06-14T09:22:35;23.77;;;4.78;;
49460;SDS011;35355;49.198;-0.368;2023-06-14T09:25:04;27.00;;;5.03;;
49460;SDS011;35355;49.198;-0.368;2023-06-14T09:27:30;23.15;;;4.82;;
49460;SDS011;35355;49.198;-0.368;2023-06-14T09:29:56;19.50;;;5.25;;
49460;SDS011;35355;49.198;-0.368;2023-06-14T09:32:21;20.60;;;5.30;;
49460;SDS011;35355;49.198;-0.368;2023-06-14T09:34:47;24.17;;;5.57;;
49460;SDS011;35355;49.198;-0.368;2023-06-14T09:37:13;18.33;;;4.88;;
49460;SDS011;35355;49.198;-0.368;2023-06-14T09:39:51;17.58;;;4.90;;
49460;SDS011;35355;49.198;-0.368;2023-06-14T09:42:17;16.67;;;4.97;;
49460;SDS011;35355;49.198;-0.368;2023-06-14T09:44:45;19.75;;;5.30;;
49460;SDS011;35355;49.198;-0.368;2023-06-14T09:47:13;22.45;;;5.00;;
49460;SDS011;35355;49.198;-0.368;2023-06-14T09:49:40;19.83;;;5.65;;
49460;SDS011;35355;49.198;-0.368;2023-06-14T09:52:05;20.55;;;5.60;;
49460;SDS011;35355;49.198;-0.368;2023-06-14T09:54:32;24.77;;;6.10;;
49460;SDS011;35355;49.198;-0.368;2023-06-14T09:57:01;31.13;;;5.10;;
49460;SDS011;35355;49.198;-0.368;2023-06-14T09:59:29;17.30;;;4.53;;
49460;SDS011;35355;49.198;-0.368;2023-06-14T10:01:57;15.27;;;4.68;;
49460;SDS011;35355;49.198;-0.368;2023-06-14T10:04:24;27.08;;;4.15;;
49460;SDS011;35355;49.198;-0.368;2023-06-14T10:06:52;22.98;;;5.43;;
49460;SDS011;35355;49.198;-0.368;2023-06-14T10:09:19;15.13;;;4.25;;
49460;SDS011;35355;49.198;-0.368;2023-06-14T10:11:46;21.17;;;4.97;;
49460;SDS011;35355;49.198;-0.368;2023-06-14T10:14:12;14.38;;;3.97;;
49460;SDS011;35355;49.198;-0.368;2023-06-14T10:19:23;20.60;;;5.30;;
49460;SDS011;35355;49.198;-0.368;2023-06-14T10:22:04;18.13;;;5.40;;
49460;SDS011;35355;49.198;-0.368;2023-06-14T10:24:44;15.25;;;5.28;;
49460;SDS011;35355;49.198;-0.368;2023-06-14T10:27:13;14.20;;;5.03;;
49460;SDS011;35355;49.198;-0.368;2023-06-14T10:32:24;15.15;;;4.72;;
49460;SDS011;35355;49.198;-0.368;2023-06-14T10:34:56;20.30;;;5.72;;
49460;SDS011;35355;49.198;-0.368;2023-06-14T10:37:24;15.00;;;4.35;;
49460;SDS011;35355;49.198;-0.368;2023-06-14T10:39:50;19.52;;;5.13;;
49460;SDS011;35355;49.198;-0.368;2023-06-14T10:42:16;17.95;;;5.28;;
49460;SDS011;35355;49.198;-0.368;2023-06-14T10:47:30;18.95;;;5.15;;
49460;SDS011;35355;49.198;-0.368;2023-06-14T10:49:58;19.52;;;4.82;;
49460;SDS011;35355;49.198;-0.368;2023-06-14T10:57:30;16.00;;;5.43;;
49460;SDS011;35355;49.198;-0.368;2023-06-14T10:59:59;14.98;;;4.15;;
49460;SDS011;35355;49.198;-0.368;2023-06-14T11:11:32;17.30;;;4.35;;
49460;SDS011;35355;49.198;-0.368;2023-06-14T11:14:02;17.90;;;5.00;;
49460;SDS011;35355;49.198;-0.368;2023-06-14T11:16:28;17.15;;;4.65;;
49460;SDS011;35355;49.198;-0.368;2023-06-14T11:18:53;20.52;;;5.40;;
49460;SDS011;35355;49.198;-0.368;2023-06-14T11:21:19;13.93;;;4.30;;
49460;SDS011;35355;49.198;-0.368;2023-06-14T11:23:48;22.80;;;5.25;;
49460;SDS011;35355;49.198;-0.368;2023-06-14T11:26:15;20.98;;;5.28;;
49460;SDS011;35355;49.198;-0.368;2023-06-14T11:28:41;22.60;;;5.45;;
49460;SDS011;35355;49.198;-0.368;2023-06-14T11:31:07;13.43;;;4.38;;
49460;SDS011;35355;49.198;-0.368;2023-06-14T11:33:32;20.20;;;4.82;;
49460;SDS011;35355;49.198;-0.368;2023-06-14T11:36:01;18.88;;;5.18;;
49460;SDS011;35355;49.198;-0.368;2023-06-14T11:38:27;17.90;;;4.28;;
49460;SDS011;35355;49.198;-0.368;2023-06-14T11:40:53;23.25;;;5.30;;
49460;SDS011;35355;49.198;-0.368;2023-06-14T11:43:18;20.83;;;4.47;;
49460;SDS011;35355;49.198;-0.368;2023-06-14T11:45:47;19.20;;;4.68;;
49460;SDS011;35355;49.198;-0.368;2023-06-14T11:48:13;24.42;;;6.57;;
49460;SDS011;35355;49.198;-0.368;2023-06-14T11:50:39;21.80;;;3.95;;
49460;SDS011;35355;49.198;-0.368;2023-06-14T11:53:04;25.02;;;6.05;;
49460;SDS011;35355;49.198;-0.368;2023-06-14T11:55:38;18.50;;;4.43;;
49460;SDS011;35355;49.198;-0.368;2023-06-14T11:58:04;21.63;;;5.20;;
49460;SDS011;35355;49.198;-0.368;2023-06-14T12:00:30;15.27;;;4.88;;
49460;SDS011;35355;49.198;-0.368;2023-06-14T12:02:56;17.10;;;4.20;;
49460;SDS011;35355;49.198;-0.368;2023-06-14T12:05:21;17.67;;;4.63;;
49460;SDS011;35355;49.198;-0.368;2023-06-14T12:07:48;15.90;;;4.13;;
49460;SDS011;35355;49.198;-0.368;2023-06-14T12:10:15;21.08;;;4.85;;
49460;SDS011;35355;49.198;-0.368;2023-06-14T12:12:41;28.23;;;4.70;;
49460;SDS011;35355;49.198;-0.368;2023-06-14T12:15:07;16.75;;;3.92;;
49460;SDS011;35355;49.198;-0.368;2023-06-14T12:17:34;18.58;;;4.20;;
49460;SDS011;35355;49.198;-0.368;2023-06-14T12:20:10;14.85;;;4.22;;
49460;SDS011;35355;49.198;-0.368;2023-06-14T12:25:28;21.73;;;4.47;;
49460;SDS011;35355;49.198;-0.368;2023-06-14T12:27:58;23.02;;;4.57;;
49460;SDS011;35355;49.198;-0.368;2023-06-14T12:30:25;14.25;;;4.20;;
49460;SDS011;35355;49.198;-0.368;2023-06-14T12:32:51;22.25;;;5.93;;
49460;SDS011;35355;49.198;-0.368;2023-06-14T12:35:16;18.88;;;4.53;;
49460;SDS011;35355;49.198;-0.368;2023-06-14T12:37:44;18.45;;;4.63;;
49460;SDS011;35355;49.198;-0.368;2023-06-14T12:40:11;15.90;;;4.40;;
49460;SDS011;35355;49.198;-0.368;2023-06-14T12:42:37;18.75;;;4.47;;
49460;SDS011;35355;49.198;-0.368;2023-06-14T12:45:02;14.52;;;4.85;;
49460;SDS011;35355;49.198;-0.368;2023-06-14T12:47:28;23.77;;;4.68;;
49460;SDS011;35355;49.198;-0.368;2023-06-14T12:49:54;15.73;;;4.20;;
49460;SDS011;35355;49.198;-0.368;2023-06-14T12:52:20;18.05;;;4.65;;
49460;SDS011;35355;49.198;-0.368;2023-06-14T12:54:45;18.80;;;4.25;;
49460;SDS011;35355;49.198;-0.368;2023-06-14T12:57:11;15.23;;;3.97;;
49460;SDS011;35355;49.198;-0.368;2023-06-14T12:59:36;17.85;;;4.45;;
49460;SDS011;35355;49.198;-0.368;2023-06-14T13:02:15;22.63;;;4.28;;
49460;SDS011;35355;49.198;-0.368;2023-06-14T13:04:42;11.98;;;4.35;;
49460;SDS011;35355;49.198;-0.368;2023-06-14T13:07:08;19.13;;;4.47;;
49460;SDS011;35355;49.198;-0.368;2023-06-14T13:09:35;15.90;;;4.68;;
49460;SDS011;35355;49.198;-0.368;2023-06-14T13:12:01;16.00;;;4.25;;
49460;SDS011;35355;49.198;-0.368;2023-06-14T13:14:27;14.10;;;4.57;;
49460;SDS011;35355;49.198;-0.368;2023-06-14T13:16:52;14.18;;;4.10;;
49460;SDS011;35355;49.198;-0.368;2023-06-14T13:19:18;16.23;;;4.72;;
49460;SDS011;35355;49.198;-0.368;2023-06-14T13:21:43;15.02;;;4.70;;
49460;SDS011;35355;49.198;-0.368;2023-06-14T13:24:09;13.82;;;4.60;;
49460;SDS011;35355;49.198;-0.368;2023-06-14T13:26:34;20.40;;;3.97;;
49460;SDS011;35355;49.198;-0.368;2023-06-14T13:29:00;20.73;;;5.03;;
49460;SDS011;35355;49.198;-0.368;2023-06-14T13:31:25;17.63;;;3.97;;
49460;SDS011;35355;49.198;-0.368;2023-06-14T13:33:51;16.33;;;4.03;;
49460;SDS011;35355;49.198;-0.368;2023-06-14T13:36:17;13.50;;;5.00;;
49460;SDS011;35355;49.198;-0.368;2023-06-14T13:38:42;12.98;;;3.58;;
49460;SDS011;35355;49.198;-0.368;2023-06-14T13:41:07;13.93;;;3.85;;
49460;SDS011;35355;49.198;-0.368;2023-06-14T13:43:33;13.60;;;4.05;;
49460;SDS011;35355;49.198;-0.368;2023-06-14T13:45:58;20.90;;;4.97;;
49460;SDS011;35355;49.198;-0.368;2023-06-14T13:48:24;12.10;;;3.75;;
49460;SDS011;35355;49.198;-0.368;2023-06-14T13:50:49;12.90;;;3.85;;
49460;SDS011;35355;49.198;-0.368;2023-06-14T13:53:15;13.18;;;4.00;;
49460;SDS011;35355;49.198;-0.368;2023-06-14T13:55:40;13.77;;;4.05;;
49460;SDS011;35355;49.198;-0.368;2023-06-14T13:58:06;17.92;;;4.20;;
49460;SDS011;35355;49.198;-0.368;2023-06-14T14:00:31;9.40;;;4.18;;
49460;SDS011;35355;49.198;-0.368;2023-06-14T14:02:57;19.02;;;3.63;;
49460;SDS011;35355;49.198;-0.368;2023-06-14T14:05:24;11.27;;;3.83;;
49460;SDS011;35355;49.198;-0.368;2023-06-14T14:07:54;10.23;;;3.65;;
49460;SDS011;35355;49.198;-0.368;2023-06-14T14:10:20;14.35;;;4.00;;
49460;SDS011;35355;49.198;-0.368;2023-06-14T14:12:45;11.00;;;4.00;;
49460;SDS011;35355;49.198;-0.368;2023-06-14T14:15:11;26.02;;;5.05;;
49460;SDS011;35355;49.198;-0.368;2023-06-14T14:17:40;13.57;;;4.18;;
49460;SDS011;35355;49.198;-0.368;2023-06-14T14:20:06;10.68;;;3.80;;
49460;SDS011;35355;49.198;-0.368;2023-06-14T14:22:32;16.35;;;4.05;;
49460;SDS011;35355;49.198;-0.368;2023-06-14T14:24:57;14.13;;;4.47;;
49460;SDS011;35355;49.198;-0.368;2023-06-14T14:27:23;14.30;;;3.75;;
49460;SDS011;35355;49.198;-0.368;2023-06-14T14:29:48;8.63;;;3.88;;
49460;SDS011;35355;49.198;-0.368;2023-06-14T14:32:14;10.98;;;3.95;;
49460;SDS011;35355;49.198;-0.368;2023-06-14T14:34:40;6.88;;;3.47;;
49460;SDS011;35355;49.198;-0.368;2023-06-14T14:37:05;9.48;;;3.83;;
49460;SDS011;35355;49.198;-0.368;2023-06-14T14:39:31;17.02;;;3.85;;
49460;SDS011;35355;49.198;-0.368;2023-06-14T14:41:56;8.38;;;3.35;;
49460;SDS011;35355;49.198;-0.368;2023-06-14T14:44:22;13.20;;;3.72;;
49460;SDS011;35355;49.198;-0.368;2023-06-14T14:46:47;7.20;;;3.75;;
49460;SDS011;35355;49.198;-0.368;2023-06-14T14:49:12;11.25;;;3.38;;